sensor_id;sensor_type;location;lat;lon;timestamp;pressure;altitude;pressure_sealevel;temperature;humidity
64610;BME280;51019;46.090;6.350;2022-08-30T00:01:13;96692.72;;;15.37;84.34
64610;BME280;51019;46.090;6.350;2022-08-30T00:03:44;96697.19;;;15.44;85.72
64610;BME280;51019;46.090;6.350;2022-08-30T00:06:13;96741.91;;;16.17;83.15
64610;BME280;51019;46.090;6.350;2022-08-30T00:08:41;96671.97;;;15.89;82.64
64610;BME280;51019;46.090;6.350;2022-08-30T00:11:12;96692.09;;;16.29;81.17
64610;BME280;51019;46.090;6.350;2022-08-30T00:13:41;96577.56;;;15.27;82.33
64610;BME280;51019;46.090;6.350;2022-08-30T00:16:10;96650.09;;;15.64;83.01
64610;BME280;51019;46.090;6.350;2022-08-30T00:18:38;96738.69;;;16.30;82.75
64610;BME280;51019;46.090;6.350;2022-08-30T00:21:08;96731.06;;;15.96;85.51
64610;BME280;51019;46.090;6.350;2022-08-30T00:23:35;96744.09;;;16.06;85.51
64610;BME280;51019;46.090;6.350;2022-08-30T00:26:03;96674.22;;;15.61;86.30
64610;BME280;51019;46.090;6.350;2022-08-30T00:28:30;96700.31;;;15.64;87.15
64610;BME280;51019;46.090;6.350;2022-08-30T00:30:58;96721.91;;;15.76;87.53
64610;BME280;51019;46.090;6.350;2022-08-30T00:33:26;96728.47;;;15.88;87.69
64610;BME280;51019;46.090;6.350;2022-08-30T00:35:53;96748.66;;;16.20;86.55
64610;BME280;51019;46.090;6.350;2022-08-30T00:38:22;96651.13;;;15.55;87.20
64610;BME280;51019;46.090;6.350;2022-08-30T00:40:50;96580.91;;;15.21;87.06
64610;BME280;51019;46.090;6.350;2022-08-30T00:43:20;96701.88;;;15.89;86.83
64610;BME280;51019;46.090;6.350;2022-08-30T00:45:49;96691.03;;;16.07;86.18
64610;BME280;51019;46.090;6.350;2022-08-30T00:48:17;96668.28;;;15.67;87.22
64610;BME280;51019;46.090;6.350;2022-08-30T00:50:48;96722.94;;;16.06;86.57
64610;BME280;51019;46.090;6.350;2022-08-30T00:53:19;96734.50;;;16.13;86.14
64610;BME280;51019;46.090;6.350;2022-08-30T00:55:48;96632.16;;;15.35;87.06
64610;BME280;51019;46.090;6.350;2022-08-30T00:58:19;96653.25;;;15.59;87.21
64610;BME280;51019;46.090;6.350;2022-08-30T01:00:54;96631.16;;;15.36;87.61
64610;BME280;51019;46.090;6.350;2022-08-30T01:03:23;96677.56;;;15.55;87.89
64610;BME280;51019;46.090;6.350;2022-08-30T01:05:50;96676.53;;;15.48;87.27
64610;BME280;51019;46.090;6.350;2022-08-30T01:08:18;96723.59;;;15.60;88.17
64610;BME280;51019;46.090;6.350;2022-08-30T01:10:48;96623.53;;;14.94;88.75
64610;BME280;51019;46.090;6.350;2022-08-30T01:13:16;96559.41;;;14.69;87.62
64610;BME280;51019;46.090;6.350;2022-08-30T01:15:44;96729.50;;;15.79;86.61
64610;BME280;51019;46.090;6.350;2022-08-30T01:18:12;96696.88;;;15.39;88.57
64610;BME280;51019;46.090;6.350;2022-08-30T01:20:47;96626.78;;;15.04;87.18
64610;BME280;51019;46.090;6.350;2022-08-30T01:23:19;96740.06;;;15.71;88.19
64610;BME280;51019;46.090;6.350;2022-08-30T01:25:49;96559.25;;;14.63;88.76
64610;BME280;51019;46.090;6.350;2022-08-30T01:28:20;96700.97;;;15.50;87.98
64610;BME280;51019;46.090;6.350;2022-08-30T01:30:48;96594.88;;;14.67;88.90
64610;BME280;51019;46.090;6.350;2022-08-30T01:33:16;96726.25;;;15.36;89.19
64610;BME280;51019;46.090;6.350;2022-08-30T01:35:48;96631.78;;;14.83;88.21
64610;BME280;51019;46.090;6.350;2022-08-30T01:38:20;96614.97;;;14.51;88.59
64610;BME280;51019;46.090;6.350;2022-08-30T01:40:48;96681.56;;;14.94;89.19
64610;BME280;51019;46.090;6.350;2022-08-30T01:43:17;96641.34;;;14.60;90.45
64610;BME280;51019;46.090;6.350;2022-08-30T01:45:45;96624.84;;;14.58;90.02
64610;BME280;51019;46.090;6.350;2022-08-30T01:48:13;96727.28;;;15.11;90.35
64610;BME280;51019;46.090;6.350;2022-08-30T01:50:40;96653.22;;;14.72;89.86
64610;BME280;51019;46.090;6.350;2022-08-30T01:53:08;96584.94;;;14.20;90.69
64610;BME280;51019;46.090;6.350;2022-08-30T01:55:37;96721.66;;;15.22;91.03
64610;BME280;51019;46.090;6.350;2022-08-30T01:58:04;96655.03;;;14.87;90.35
64610;BME280;51019;46.090;6.350;2022-08-30T02:00:32;96567.00;;;14.48;88.71
64610;BME280;51019;46.090;6.350;2022-08-30T02:02:59;96638.22;;;14.72;89.74
64610;BME280;51019;46.090;6.350;2022-08-30T02:05:26;96714.25;;;15.09;89.21
64610;BME280;51019;46.090;6.350;2022-08-30T02:07:54;96731.06;;;15.00;90.12
64610;BME280;51019;46.090;6.350;2022-08-30T02:10:21;96737.00;;;15.18;88.76
64610;BME280;51019;46.090;6.350;2022-08-30T02:12:50;96685.38;;;14.75;89.26
64610;BME280;51019;46.090;6.350;2022-08-30T02:15:17;96675.00;;;14.66;90.03
64610;BME280;51019;46.090;6.350;2022-08-30T02:17:45;96691.78;;;14.81;90.06
64610;BME280;51019;46.090;6.350;2022-08-30T02:20:12;96551.75;;;13.77;90.92
64610;BME280;51019;46.090;6.350;2022-08-30T02:22:39;96730.72;;;14.87;91.23
64610;BME280;51019;46.090;6.350;2022-08-30T02:25:08;96748.06;;;14.89;90.13
64610;BME280;51019;46.090;6.350;2022-08-30T02:27:35;96637.00;;;14.26;89.80
64610;BME280;51019;46.090;6.350;2022-08-30T02:30:05;96734.84;;;15.14;88.89
64610;BME280;51019;46.090;6.350;2022-08-30T02:32:33;96659.16;;;14.74;87.92
64610;BME280;51019;46.090;6.350;2022-08-30T02:35:00;96681.06;;;14.58;88.55
64610;BME280;51019;46.090;6.350;2022-08-30T02:37:28;96637.31;;;14.23;89.42
64610;BME280;51019;46.090;6.350;2022-08-30T02:39:55;96660.06;;;14.24;90.44
64610;BME280;51019;46.090;6.350;2022-08-30T02:42:22;96686.75;;;14.21;91.57
64610;BME280;51019;46.090;6.350;2022-08-30T02:44:49;96661.38;;;14.20;91.08
64610;BME280;51019;46.090;6.350;2022-08-30T02:47:18;96664.03;;;14.28;90.43
64610;BME280;51019;46.090;6.350;2022-08-30T02:49:45;96717.00;;;14.59;90.04
64610;BME280;51019;46.090;6.350;2022-08-30T02:52:12;96635.50;;;14.24;90.18
64610;BME280;51019;46.090;6.350;2022-08-30T02:54:39;96663.78;;;14.56;89.92
64610;BME280;51019;46.090;6.350;2022-08-30T02:57:07;96623.47;;;14.13;90.87
64610;BME280;51019;46.090;6.350;2022-08-30T02:59:34;96557.31;;;13.58;91.46
64610;BME280;51019;46.090;6.350;2022-08-30T03:02:06;96676.78;;;14.41;90.98
64610;BME280;51019;46.090;6.350;2022-08-30T03:04:35;96528.91;;;12.93;91.62
64610;BME280;51019;46.090;6.350;2022-08-30T03:07:03;96733.19;;;14.22;91.89
64610;BME280;51019;46.090;6.350;2022-08-30T03:09:31;96656.22;;;13.94;91.46
64610;BME280;51019;46.090;6.350;2022-08-30T03:11:58;96677.16;;;14.12;91.29
64610;BME280;51019;46.090;6.350;2022-08-30T03:14:25;96644.97;;;13.84;92.06
64610;BME280;51019;46.090;6.350;2022-08-30T03:16:53;96724.41;;;14.47;92.54
64610;BME280;51019;46.090;6.350;2022-08-30T03:19:20;96579.59;;;13.71;92.11
64610;BME280;51019;46.090;6.350;2022-08-30T03:21:49;96711.09;;;14.65;93.04
64610;BME280;51019;46.090;6.350;2022-08-30T03:24:17;96621.13;;;13.94;92.19
64610;BME280;51019;46.090;6.350;2022-08-30T03:26:44;96614.00;;;13.78;94.32
64610;BME280;51019;46.090;6.350;2022-08-30T03:29:16;96661.41;;;13.78;96.08
64610;BME280;51019;46.090;6.350;2022-08-30T03:31:45;96722.94;;;14.11;95.24
64610;BME280;51019;46.090;6.350;2022-08-30T03:34:13;96626.38;;;13.43;97.12
64610;BME280;51019;46.090;6.350;2022-08-30T03:36:41;96649.28;;;13.85;96.60
64610;BME280;51019;46.090;6.350;2022-08-30T03:39:10;96601.94;;;13.59;95.49
64610;BME280;51019;46.090;6.350;2022-08-30T03:41:38;96609.44;;;13.96;94.67
64610;BME280;51019;46.090;6.350;2022-08-30T03:44:05;96605.28;;;13.77;93.36
64610;BME280;51019;46.090;6.350;2022-08-30T03:46:32;96682.66;;;14.35;93.57
64610;BME280;51019;46.090;6.350;2022-08-30T03:48:59;96597.66;;;13.58;94.15
64610;BME280;51019;46.090;6.350;2022-08-30T03:51:26;96640.25;;;13.96;93.57
64610;BME280;51019;46.090;6.350;2022-08-30T03:53:53;96512.97;;;12.95;94.48
64610;BME280;51019;46.090;6.350;2022-08-30T03:56:22;96578.19;;;13.43;94.80
64610;BME280;51019;46.090;6.350;2022-08-30T03:58:49;96680.53;;;14.30;93.30
64610;BME280;51019;46.090;6.350;2022-08-30T04:01:17;96665.47;;;14.06;92.88
64610;BME280;51019;46.090;6.350;2022-08-30T04:03:44;96709.16;;;14.17;93.32
64610;BME280;51019;46.090;6.350;2022-08-30T04:06:11;96631.69;;;13.52;94.09
64610;BME280;51019;46.090;6.350;2022-08-30T04:08:39;96636.09;;;13.43;95.91
64610;BME280;51019;46.090;6.350;2022-08-30T04:11:07;96728.03;;;14.04;95.99
64610;BME280;51019;46.090;6.350;2022-08-30T04:13:36;96704.69;;;14.09;95.34
64610;BME280;51019;46.090;6.350;2022-08-30T04:16:04;96675.81;;;14.00;95.21
64610;BME280;51019;46.090;6.350;2022-08-30T04:18:31;96648.53;;;13.67;95.51
64610;BME280;51019;46.090;6.350;2022-08-30T04:20:59;96651.50;;;13.64;96.59
64610;BME280;51019;46.090;6.350;2022-08-30T04:23:26;96715.88;;;14.11;96.27
64610;BME280;51019;46.090;6.350;2022-08-30T04:25:54;96589.69;;;13.42;95.56
64610;BME280;51019;46.090;6.350;2022-08-30T04:28:21;96696.50;;;14.29;94.70
64610;BME280;51019;46.090;6.350;2022-08-30T04:30:50;96698.16;;;14.38;93.85
64610;BME280;51019;46.090;6.350;2022-08-30T04:33:17;96620.47;;;14.00;92.97
64610;BME280;51019;46.090;6.350;2022-08-30T04:35:46;96674.22;;;14.15;93.43
64610;BME280;51019;46.090;6.350;2022-08-30T04:38:13;96719.41;;;14.28;94.49
64610;BME280;51019;46.090;6.350;2022-08-30T04:40:42;96579.28;;;13.32;94.90
64610;BME280;51019;46.090;6.350;2022-08-30T04:43:10;96690.69;;;14.17;93.92
64610;BME280;51019;46.090;6.350;2022-08-30T04:45:37;96675.81;;;14.00;93.80
64610;BME280;51019;46.090;6.350;2022-08-30T04:48:07;96711.84;;;14.33;94.20
64610;BME280;51019;46.090;6.350;2022-08-30T04:50:34;96717.13;;;14.33;93.72
64610;BME280;51019;46.090;6.350;2022-08-30T04:53:01;96542.78;;;13.03;94.74
64610;BME280;51019;46.090;6.350;2022-08-30T04:55:29;96574.22;;;13.39;93.78
64610;BME280;51019;46.090;6.350;2022-08-30T04:57:56;96614.28;;;13.67;93.43
64610;BME280;51019;46.090;6.350;2022-08-30T05:00:30;96716.09;;;14.34;94.26
64610;BME280;51019;46.090;6.350;2022-08-30T05:02:58;96622.25;;;13.83;92.58
64610;BME280;51019;46.090;6.350;2022-08-30T05:05:27;96562.41;;;13.51;92.25
64610;BME280;51019;46.090;6.350;2022-08-30T05:08:09;96613.84;;;13.79;92.84
64610;BME280;51019;46.090;6.350;2022-08-30T05:10:38;96559.56;;;13.36;93.25
64610;BME280;51019;46.090;6.350;2022-08-30T05:13:08;96690.72;;;14.25;94.11
64610;BME280;51019;46.090;6.350;2022-08-30T05:15:36;96540.38;;;13.52;92.12
64610;BME280;51019;46.090;6.350;2022-08-30T05:18:13;96665.34;;;14.24;92.53
64610;BME280;51019;46.090;6.350;2022-08-30T05:20:45;96621.72;;;13.71;94.80
64610;BME280;51019;46.090;6.350;2022-08-30T05:23:15;96729.50;;;14.41;94.54
64610;BME280;51019;46.090;6.350;2022-08-30T05:25:42;96723.78;;;14.53;94.22
64610;BME280;51019;46.090;6.350;2022-08-30T05:28:10;96669.94;;;14.22;93.43
64610;BME280;51019;46.090;6.350;2022-08-30T05:30:38;96558.16;;;13.58;93.10
64610;BME280;51019;46.090;6.350;2022-08-30T05:33:06;96715.88;;;14.70;93.44
64610;BME280;51019;46.090;6.350;2022-08-30T05:35:34;96572.72;;;13.87;93.32
64610;BME280;51019;46.090;6.350;2022-08-30T05:38:03;96666.91;;;14.51;92.87
64610;BME280;51019;46.090;6.350;2022-08-30T05:40:33;96652.72;;;14.60;91.62
64610;BME280;51019;46.090;6.350;2022-08-30T05:43:03;96718.22;;;14.89;92.20
64610;BME280;51019;46.090;6.350;2022-08-30T05:45:37;96616.59;;;14.20;92.99
64610;BME280;51019;46.090;6.350;2022-08-30T05:48:13;96561.44;;;13.60;94.37
64610;BME280;51019;46.090;6.350;2022-08-30T05:50:41;96684.19;;;14.45;93.93
64610;BME280;51019;46.090;6.350;2022-08-30T05:53:10;96724.63;;;14.78;94.18
64610;BME280;51019;46.090;6.350;2022-08-30T05:55:39;96632.41;;;14.28;93.88
64610;BME280;51019;46.090;6.350;2022-08-30T05:58:07;96702.50;;;14.79;93.23
64610;BME280;51019;46.090;6.350;2022-08-30T06:00:34;96625.19;;;14.71;90.70
64610;BME280;51019;46.090;6.350;2022-08-30T06:03:02;96658.97;;;14.92;90.59
64610;BME280;51019;46.090;6.350;2022-08-30T06:05:29;96679.44;;;14.89;91.46
64610;BME280;51019;46.090;6.350;2022-08-30T06:07:56;96705.81;;;15.14;92.28
64610;BME280;51019;46.090;6.350;2022-08-30T06:10:25;96630.31;;;14.72;91.89
64610;BME280;51019;46.090;6.350;2022-08-30T06:12:52;96631.94;;;14.89;91.05
64610;BME280;51019;46.090;6.350;2022-08-30T06:15:19;96577.03;;;14.69;90.44
64610;BME280;51019;46.090;6.350;2022-08-30T06:17:47;96703.13;;;15.54;89.92
64610;BME280;51019;46.090;6.350;2022-08-30T06:20:14;96697.28;;;15.75;88.86
64610;BME280;51019;46.090;6.350;2022-08-30T06:22:43;96564.09;;;15.14;88.89
64610;BME280;51019;46.090;6.350;2022-08-30T06:25:10;96730.03;;;16.13;86.37
64610;BME280;51019;46.090;6.350;2022-08-30T06:27:40;96634.00;;;15.35;88.49
64610;BME280;51019;46.090;6.350;2022-08-30T06:30:08;96637.06;;;15.46;88.37
64610;BME280;51019;46.090;6.350;2022-08-30T06:32:36;96681.88;;;15.87;86.50
64610;BME280;51019;46.090;6.350;2022-08-30T06:35:04;96667.28;;;15.52;89.08
64610;BME280;51019;46.090;6.350;2022-08-30T06:37:32;96743.03;;;16.54;86.14
64610;BME280;51019;46.090;6.350;2022-08-30T06:40:00;96587.78;;;15.78;85.51
64610;BME280;51019;46.090;6.350;2022-08-30T06:42:30;96633.09;;;16.28;84.44
64610;BME280;51019;46.090;6.350;2022-08-30T06:45:00;96755.44;;;17.07;84.94
64610;BME280;51019;46.090;6.350;2022-08-30T06:47:28;96663.50;;;16.55;84.82
64610;BME280;51019;46.090;6.350;2022-08-30T06:49:56;96694.25;;;16.56;85.16
64610;BME280;51019;46.090;6.350;2022-08-30T06:52:23;96681.22;;;16.78;82.53
64610;BME280;51019;46.090;6.350;2022-08-30T06:54:51;96754.97;;;17.26;82.53
64610;BME280;51019;46.090;6.350;2022-08-30T06:57:19;96698.75;;;16.79;83.50
64610;BME280;51019;46.090;6.350;2022-08-30T06:59:46;96685.19;;;16.96;83.44
64610;BME280;51019;46.090;6.350;2022-08-30T07:02:14;96725.56;;;17.51;85.03
64610;BME280;51019;46.090;6.350;2022-08-30T07:04:41;96718.78;;;17.71;83.42
64610;BME280;51019;46.090;6.350;2022-08-30T07:07:10;96733.59;;;18.09;82.43
64610;BME280;51019;46.090;6.350;2022-08-30T07:09:37;96704.25;;;18.47;79.85
64610;BME280;51019;46.090;6.350;2022-08-30T07:12:08;96656.28;;;18.27;77.27
64610;BME280;51019;46.090;6.350;2022-08-30T07:14:35;96734.06;;;19.28;74.61
64610;BME280;51019;46.090;6.350;2022-08-30T07:17:03;96731.16;;;19.72;69.81
64610;BME280;51019;46.090;6.350;2022-08-30T07:19:52;96682.66;;;19.70;65.99
64610;BME280;51019;46.090;6.350;2022-08-30T07:22:18;96679.66;;;20.27;63.70
64610;BME280;51019;46.090;6.350;2022-08-30T07:24:46;96738.09;;;21.35;62.52
64610;BME280;51019;46.090;6.350;2022-08-30T07:27:14;96745.28;;;21.28;65.29
64610;BME280;51019;46.090;6.350;2022-08-30T07:29:41;96658.06;;;20.50;64.82
64610;BME280;51019;46.090;6.350;2022-08-30T07:32:08;96603.50;;;20.19;64.49
64610;BME280;51019;46.090;6.350;2022-08-30T07:34:35;96732.25;;;20.73;65.78
64610;BME280;51019;46.090;6.350;2022-08-30T07:37:03;96735.50;;;20.68;64.44
64610;BME280;51019;46.090;6.350;2022-08-30T07:39:30;96735.38;;;20.96;63.97
64610;BME280;51019;46.090;6.350;2022-08-30T07:41:57;96719.66;;;21.47;62.67
64610;BME280;51019;46.090;6.350;2022-08-30T07:44:24;96684.59;;;21.37;63.30
64610;BME280;51019;46.090;6.350;2022-08-30T07:46:51;96739.28;;;20.93;64.27
64610;BME280;51019;46.090;6.350;2022-08-30T07:49:18;96748.19;;;21.53;62.83
64610;BME280;51019;46.090;6.350;2022-08-30T07:51:45;96761.50;;;21.73;63.22
64610;BME280;51019;46.090;6.350;2022-08-30T07:54:14;96743.47;;;21.55;60.62
64610;BME280;51019;46.090;6.350;2022-08-30T07:56:41;96708.59;;;21.37;61.17
64610;BME280;51019;46.090;6.350;2022-08-30T07:59:08;96745.25;;;22.07;59.45
64610;BME280;51019;46.090;6.350;2022-08-30T08:01:35;96743.31;;;22.34;58.36
64610;BME280;51019;46.090;6.350;2022-08-30T08:04:02;96732.13;;;21.99;57.39
64610;BME280;51019;46.090;6.350;2022-08-30T08:06:30;96746.84;;;22.22;57.80
64610;BME280;51019;46.090;6.350;2022-08-30T08:08:57;96621.44;;;22.08;55.77
64610;BME280;51019;46.090;6.350;2022-08-30T08:11:28;96752.34;;;22.85;55.73
64610;BME280;51019;46.090;6.350;2022-08-30T08:13:56;96646.34;;;22.40;56.01
64610;BME280;51019;46.090;6.350;2022-08-30T08:23:07;96739.13;;;23.28;55.76
64610;BME280;51019;46.090;6.350;2022-08-30T08:25:38;96671.78;;;22.88;56.91
64610;BME280;51019;46.090;6.350;2022-08-30T08:28:07;96642.53;;;22.61;57.86
64610;BME280;51019;46.090;6.350;2022-08-30T08:30:36;96689.78;;;22.23;57.99
64610;BME280;51019;46.090;6.350;2022-08-30T08:33:04;96725.75;;;22.58;59.93
64610;BME280;51019;46.090;6.350;2022-08-30T08:35:31;96747.34;;;22.57;59.56
64610;BME280;51019;46.090;6.350;2022-08-30T08:37:58;96758.66;;;22.52;59.25
64610;BME280;51019;46.090;6.350;2022-08-30T08:40:26;96731.13;;;22.52;58.88
64610;BME280;51019;46.090;6.350;2022-08-30T08:43:00;96764.09;;;23.15;58.40
64610;BME280;51019;46.090;6.350;2022-08-30T08:45:37;96699.50;;;22.49;58.92
64610;BME280;51019;46.090;6.350;2022-08-30T08:48:10;96723.97;;;22.45;59.92
64610;BME280;51019;46.090;6.350;2022-08-30T08:50:40;96770.78;;;23.31;58.39
64610;BME280;51019;46.090;6.350;2022-08-30T08:53:32;96673.31;;;22.64;57.46
64610;BME280;51019;46.090;6.350;2022-08-30T08:56:04;96628.66;;;21.95;58.21
64610;BME280;51019;46.090;6.350;2022-08-30T08:58:40;96675.66;;;22.09;60.01
64610;BME280;51019;46.090;6.350;2022-08-30T09:01:10;96717.69;;;22.14;60.75
64610;BME280;51019;46.090;6.350;2022-08-30T09:03:41;96763.41;;;22.37;61.66
64610;BME280;51019;46.090;6.350;2022-08-30T09:06:22;96765.69;;;22.40;61.65
64610;BME280;51019;46.090;6.350;2022-08-30T09:08:50;96636.78;;;21.62;62.73
64610;BME280;51019;46.090;6.350;2022-08-30T09:11:22;96744.78;;;22.24;63.43
64610;BME280;51019;46.090;6.350;2022-08-30T09:13:49;96772.09;;;22.32;63.29
64610;BME280;51019;46.090;6.350;2022-08-30T09:16:47;96778.56;;;22.56;62.65
64610;BME280;51019;46.090;6.350;2022-08-30T09:19:36;96776.72;;;22.57;61.18
64610;BME280;51019;46.090;6.350;2022-08-30T09:22:11;96777.66;;;22.69;60.92
64610;BME280;51019;46.090;6.350;2022-08-30T09:24:42;96778.28;;;22.71;58.77
64610;BME280;51019;46.090;6.350;2022-08-30T09:27:21;96769.78;;;22.94;58.97
64610;BME280;51019;46.090;6.350;2022-08-30T09:30:05;96733.53;;;23.04;57.76
64610;BME280;51019;46.090;6.350;2022-08-30T09:32:37;96762.50;;;23.88;55.12
64610;BME280;51019;46.090;6.350;2022-08-30T09:35:10;96768.91;;;24.06;52.06
64610;BME280;51019;46.090;6.350;2022-08-30T09:37:44;96709.44;;;23.61;52.96
64610;BME280;51019;46.090;6.350;2022-08-30T09:40:19;96724.63;;;23.92;52.49
64610;BME280;51019;46.090;6.350;2022-08-30T09:43:08;96749.16;;;24.07;52.25
64610;BME280;51019;46.090;6.350;2022-08-30T09:45:39;96673.00;;;23.66;52.40
64610;BME280;51019;46.090;6.350;2022-08-30T09:48:26;96627.03;;;23.51;53.48
64610;BME280;51019;46.090;6.350;2022-08-30T09:51:02;96629.53;;;23.46;52.75
64610;BME280;51019;46.090;6.350;2022-08-30T09:53:34;96632.56;;;23.74;53.24
64610;BME280;51019;46.090;6.350;2022-08-30T09:56:05;96669.09;;;24.23;53.10
64610;BME280;51019;46.090;6.350;2022-08-30T09:58:50;96698.44;;;24.48;53.17
64610;BME280;51019;46.090;6.350;2022-08-30T10:01:22;96736.09;;;24.83;53.36
64610;BME280;51019;46.090;6.350;2022-08-30T10:03:57;96630.25;;;24.14;52.92
64610;BME280;51019;46.090;6.350;2022-08-30T10:06:34;96705.94;;;24.88;51.84
64610;BME280;51019;46.090;6.350;2022-08-30T10:09:11;96729.22;;;24.87;52.79
64610;BME280;51019;46.090;6.350;2022-08-30T10:11:48;96707.09;;;24.62;53.72
64610;BME280;51019;46.090;6.350;2022-08-30T10:14:32;96740.50;;;25.38;50.31
64610;BME280;51019;46.090;6.350;2022-08-30T10:17:11;96592.97;;;24.84;50.15
64610;BME280;51019;46.090;6.350;2022-08-30T10:19:51;96657.59;;;24.65;50.75
64610;BME280;51019;46.090;6.350;2022-08-30T10:22:27;96722.34;;;24.61;52.64
64610;BME280;51019;46.090;6.350;2022-08-30T10:25:04;96743.91;;;24.85;55.80
64610;BME280;51019;46.090;6.350;2022-08-30T10:27:38;96648.00;;;24.27;53.96
64610;BME280;51019;46.090;6.350;2022-08-30T10:30:09;96728.63;;;24.85;53.95
64610;BME280;51019;46.090;6.350;2022-08-30T10:33:00;96674.19;;;24.43;52.77
64610;BME280;51019;46.090;6.350;2022-08-30T10:35:56;96648.47;;;24.24;53.51
64610;BME280;51019;46.090;6.350;2022-08-30T10:38:26;96576.22;;;23.87;54.40
64610;BME280;51019;46.090;6.350;2022-08-30T10:40:59;96624.28;;;23.94;56.16
64610;BME280;51019;46.090;6.350;2022-08-30T10:43:48;96569.06;;;23.45;55.98
64610;BME280;51019;46.090;6.350;2022-08-30T10:46:23;96723.66;;;24.59;55.40
64610;BME280;51019;46.090;6.350;2022-08-30T10:48:52;96625.06;;;23.40;57.75
64610;BME280;51019;46.090;6.350;2022-08-30T10:51:26;96680.06;;;23.97;58.39
64610;BME280;51019;46.090;6.350;2022-08-30T10:53:57;96584.44;;;23.49;57.99
64610;BME280;51019;46.090;6.350;2022-08-30T10:56:28;96717.28;;;24.23;57.56
64610;BME280;51019;46.090;6.350;2022-08-30T10:58:56;96691.78;;;23.35;61.50
64610;BME280;51019;46.090;6.350;2022-08-30T11:01:39;96661.66;;;23.21;66.12
64610;BME280;51019;46.090;6.350;2022-08-30T11:07:17;96587.44;;;23.16;61.07
64610;BME280;51019;46.090;6.350;2022-08-30T11:09:58;96708.47;;;24.53;60.40
64610;BME280;51019;46.090;6.350;2022-08-30T11:12:33;96751.22;;;25.38;57.19
64610;BME280;51019;46.090;6.350;2022-08-30T11:15:16;96611.81;;;24.24;57.08
64610;BME280;51019;46.090;6.350;2022-08-30T11:17:53;96641.59;;;24.88;55.25
64610;BME280;51019;46.090;6.350;2022-08-30T11:20:29;96722.06;;;26.46;51.24
64610;BME280;51019;46.090;6.350;2022-08-30T11:26:09;96679.94;;;26.63;48.10
64610;BME280;51019;46.090;6.350;2022-08-30T11:29:02;96706.66;;;26.98;48.56
64610;BME280;51019;46.090;6.350;2022-08-30T11:31:48;96708.13;;;27.85;48.41
64610;BME280;51019;46.090;6.350;2022-08-30T11:34:55;96578.53;;;26.30;47.84
64610;BME280;51019;46.090;6.350;2022-08-30T11:37:36;96702.69;;;26.32;48.67
64610;BME280;51019;46.090;6.350;2022-08-30T11:40:10;96574.69;;;26.26;47.88
64610;BME280;51019;46.090;6.350;2022-08-30T11:46:17;96664.06;;;27.24;47.41
64610;BME280;51019;46.090;6.350;2022-08-30T11:48:50;96592.75;;;26.02;47.47
64610;BME280;51019;46.090;6.350;2022-08-30T11:51:31;96571.75;;;28.00;42.64
64610;BME280;51019;46.090;6.350;2022-08-30T11:54:08;96657.09;;;28.16;42.48
64610;BME280;51019;46.090;6.350;2022-08-30T11:56:49;96608.38;;;27.96;42.16
64610;BME280;51019;46.090;6.350;2022-08-30T11:59:24;96617.53;;;27.78;42.92
64610;BME280;51019;46.090;6.350;2022-08-30T12:01:54;96632.13;;;27.10;44.53
64610;BME280;51019;46.090;6.350;2022-08-30T12:04:27;96553.88;;;27.12;44.49
64610;BME280;51019;46.090;6.350;2022-08-30T12:07:03;96630.22;;;28.00;42.91
64610;BME280;51019;46.090;6.350;2022-08-30T12:10:01;96600.16;;;27.14;45.20
64610;BME280;51019;46.090;6.350;2022-08-30T12:12:51;96543.72;;;27.36;43.27
64610;BME280;51019;46.090;6.350;2022-08-30T12:18:36;96572.44;;;28.34;41.27
64610;BME280;51019;46.090;6.350;2022-08-30T12:21:11;96535.41;;;27.37;42.63
64610;BME280;51019;46.090;6.350;2022-08-30T12:23:47;96598.44;;;28.45;41.03
64610;BME280;51019;46.090;6.350;2022-08-30T12:26:26;96522.16;;;29.09;38.57
64610;BME280;51019;46.090;6.350;2022-08-30T12:29:14;96639.34;;;29.18;39.97
64610;BME280;51019;46.090;6.350;2022-08-30T12:31:45;96517.16;;;28.90;39.67
64610;BME280;51019;46.090;6.350;2022-08-30T12:34:21;96507.97;;;28.54;40.98
64610;BME280;51019;46.090;6.350;2022-08-30T12:36:55;96496.38;;;27.78;41.59
64610;BME280;51019;46.090;6.350;2022-08-30T12:39:41;96498.50;;;27.98;41.55
64610;BME280;51019;46.090;6.350;2022-08-30T12:42:10;96630.09;;;28.82;41.36
64610;BME280;51019;46.090;6.350;2022-08-30T12:44:40;96590.56;;;28.17;42.15
64610;BME280;51019;46.090;6.350;2022-08-30T12:47:08;96593.56;;;28.42;43.70
64610;BME280;51019;46.090;6.350;2022-08-30T12:49:39;96582.22;;;29.31;42.98
64610;BME280;51019;46.090;6.350;2022-08-30T12:52:30;96570.34;;;27.93;41.74
64610;BME280;51019;46.090;6.350;2022-08-30T12:55:09;96570.47;;;27.81;42.17
64610;BME280;51019;46.090;6.350;2022-08-30T12:57:39;96481.63;;;27.59;44.02
64610;BME280;51019;46.090;6.350;2022-08-30T13:00:23;96573.09;;;28.73;42.48
64610;BME280;51019;46.090;6.350;2022-08-30T13:02:57;96604.06;;;29.30;40.66
64610;BME280;51019;46.090;6.350;2022-08-30T13:05:40;96520.19;;;28.13;42.72
64610;BME280;51019;46.090;6.350;2022-08-30T13:08:20;96490.53;;;28.08;42.83
64610;BME280;51019;46.090;6.350;2022-08-30T13:10:56;96465.19;;;28.68;40.99
64610;BME280;51019;46.090;6.350;2022-08-30T13:13:36;96559.03;;;28.66;42.44
64610;BME280;51019;46.090;6.350;2022-08-30T13:16:21;96459.50;;;28.06;43.01
64610;BME280;51019;46.090;6.350;2022-08-30T13:18:51;96575.75;;;28.41;43.05
64610;BME280;51019;46.090;6.350;2022-08-30T13:21:24;96533.31;;;28.05;43.67
64610;BME280;51019;46.090;6.350;2022-08-30T13:24:01;96455.91;;;26.91;46.05
64610;BME280;51019;46.090;6.350;2022-08-30T13:26:54;96571.38;;;27.31;46.49
64610;BME280;51019;46.090;6.350;2022-08-30T13:29:41;96575.63;;;27.27;45.53
64610;BME280;51019;46.090;6.350;2022-08-30T13:32:10;96460.69;;;26.51;47.58
64610;BME280;51019;46.090;6.350;2022-08-30T13:34:40;96449.97;;;27.06;44.65
64610;BME280;51019;46.090;6.350;2022-08-30T13:37:09;96523.34;;;28.27;43.98
64610;BME280;51019;46.090;6.350;2022-08-30T13:39:38;96487.06;;;27.86;43.88
64610;BME280;51019;46.090;6.350;2022-08-30T13:42:06;96553.50;;;28.78;43.32